In Rescue
 
Open Full Screen Window  High Contrast Mode
Wind Gusting 00 knots
04
November 29, 2022 9:02 AM CST
Present Weather: Light Snow
Weather Information
Wind Direction
  340 °
Wind Speed
  04 kt (5 mph)
Wind Gust
  00 kt (0 mph)
Altimeter
29.69 in
Visibility
3/4 SM
Temperature
-03° C
27° F
Dewpoint
-03° C
27° F
Humidity
100%
1hr Rain Fall
00.01 in.
24hr Rain Fall
00.02 in.
Sky Condition
Broken @ 900 ft
IFR

METAR K04W 291502Z AUTO 34004KT 3/4SM -SN BKN009 M03/M03 A2969 RMK AO2 P0001

FAA Disclaimer: The data displayed is for advisory purposes only and is not to be used for flight planning or operations.